Ainsworth, Iowa
Current Conditions -  °F | °C
As of 4:15 PM on Thursday 23 Oct 2014 (Local Time) from KAWG Reporting Station
Overcast Overcast  
Wind Chill: 18°   Ceiling: 2800
Heat Index: 18°   Visibility: 10mi
Dew Point: 14°   Wind: 7mph
Humidity: 77%   Direction: 300°WNW
Pressure: 30.02"   Gusts: NA
Location:  41.29°N, 91.55°W
Report Text: KAWG 232115Z AUTO 30006KT 10SM OVC028 18/14 A3002 RMK AO2
Loading
Personal Weather Stations






























Interactive Weather Map
Tropical Storm Tracking
New forecast layout! Learn more

10-Day Weather Forecast

Advertisements
Track Severe Weather on mobile